createdAt,value
2018-01-15T00:00:02.394Z,-1.80
2018-01-15T00:02:29.851Z,-1.80
2018-01-15T00:04:57.301Z,-1.80
2018-01-15T00:07:24.747Z,-1.80
2018-01-15T00:09:52.208Z,-1.70
2018-01-15T00:12:19.655Z,-1.70
2018-01-15T00:14:47.118Z,-1.70
2018-01-15T00:17:14.564Z,-1.70
2018-01-15T00:19:42.015Z,-1.70
2018-01-15T00:22:09.463Z,-1.70
2018-01-15T00:24:37.694Z,-1.70
2018-01-15T00:27:05.142Z,-1.70
2018-01-15T00:29:32.593Z,-1.70
2018-01-15T00:32:00.038Z,-1.70
2018-01-15T00:34:27.501Z,-1.80
2018-01-15T00:36:54.980Z,-1.80
2018-01-15T00:39:23.195Z,-1.90
2018-01-15T00:41:51.416Z,-1.90
2018-01-15T00:44:18.868Z,-1.90
2018-01-15T00:46:46.320Z,-1.90
2018-01-15T00:49:13.769Z,-1.90
2018-01-15T00:51:41.224Z,-1.90
2018-01-15T00:54:08.669Z,-1.90
2018-01-15T00:56:36.123Z,-2.00
2018-01-15T00:59:03.569Z,-2.00
2018-01-15T01:01:31.028Z,-2.00
2018-01-15T01:03:58.474Z,-2.00
2018-01-15T01:06:26.701Z,-2.10
2018-01-15T01:08:54.153Z,-2.10
2018-01-15T01:11:21.602Z,-2.10
2018-01-15T01:13:49.052Z,-2.10
2018-01-15T01:16:16.504Z,-2.10
2018-01-15T01:18:43.962Z,-2.10
2018-01-15T01:21:11.404Z,-2.20
2018-01-15T01:23:38.855Z,-2.20
2018-01-15T01:26:06.308Z,-2.20
2018-01-15T01:28:34.537Z,-2.20
2018-01-15T01:31:01.988Z,-2.20
2018-01-15T01:33:29.431Z,-2.20
2018-01-15T01:35:56.880Z,-2.20
2018-01-15T01:38:24.336Z,-2.20
2018-01-15T01:40:51.787Z,-2.20
2018-01-15T01:43:19.232Z,-2.20
2018-01-15T01:45:46.693Z,-2.10
2018-01-15T01:48:14.131Z,-2.20
2018-01-15T01:50:42.350Z,-2.20
2018-01-15T01:53:09.797Z,-2.20
2018-01-15T01:55:37.251Z,-2.30
2018-01-15T01:58:04.707Z,-2.30
2018-01-15T02:00:32.161Z,-2.30
2018-01-15T02:02:59.617Z,-2.30
2018-01-15T02:05:27.058Z,-2.30
2018-01-15T02:07:54.505Z,-2.30
2018-01-15T02:10:22.716Z,-2.30
2018-01-15T02:12:50.181Z,-2.30
2018-01-15T02:15:17.623Z,-2.20
2018-01-15T02:17:45.244Z,-2.20
2018-01-15T02:20:13.461Z,-2.20
2018-01-15T02:22:40.903Z,-2.20
2018-01-15T02:25:08.359Z,-2.20
2018-01-15T02:27:35.810Z,-2.20
2018-01-15T02:30:03.270Z,-2.20
2018-01-15T02:32:30.709Z,-2.20
2018-01-15T02:34:58.932Z,-2.20
2018-01-15T02:37:26.379Z,-2.20
2018-01-15T02:39:54.016Z,-2.20
2018-01-15T02:42:21.465Z,-2.20
2018-01-15T02:44:48.929Z,-2.30
2018-01-15T02:47:16.383Z,-2.30
2018-01-15T02:49:43.824Z,-2.30
2018-01-15T02:52:12.047Z,-2.30
2018-01-15T02:54:39.491Z,-2.30
2018-01-15T02:57:06.955Z,-2.20
2018-01-15T02:59:34.401Z,-2.10
2018-01-15T03:02:01.853Z,-2.10
2018-01-15T03:04:29.300Z,-2.00
2018-01-15T03:06:56.747Z,-2.00
2018-01-15T03:09:24.194Z,-2.00
2018-01-15T03:11:52.645Z,-1.90
2018-01-15T03:14:20.084Z,-1.90
2018-01-15T03:16:47.535Z,-1.90
2018-01-15T03:19:14.992Z,-1.90
2018-01-15T03:21:42.447Z,-1.90
2018-01-15T03:24:09.891Z,-1.90
2018-01-15T03:26:37.339Z,-1.90
2018-01-15T03:29:04.807Z,-1.90
2018-01-15T03:31:32.253Z,-1.90
2018-01-15T03:33:59.717Z,-1.80
2018-01-15T03:36:27.169Z,-1.80
2018-01-15T03:38:54.628Z,-1.80
2018-01-15T03:41:22.075Z,-1.80
2018-01-15T03:43:49.528Z,-1.70
2018-01-15T03:46:16.988Z,-1.70
2018-01-15T03:48:44.444Z,-1.70
2018-01-15T03:51:11.896Z,-1.70
2018-01-15T03:53:40.006Z,-1.70
2018-01-15T03:56:07.447Z,-1.70
2018-01-15T03:58:34.899Z,-1.70
2018-01-15T04:01:02.353Z,-1.70
2018-01-15T04:03:29.802Z,-1.60
2018-01-15T04:05:57.261Z,-1.60
2018-01-15T04:08:24.711Z,-1.60
2018-01-15T04:10:52.348Z,-1.60
2018-01-15T04:13:20.560Z,-1.60
2018-01-15T04:15:48.013Z,-1.60
2018-01-15T04:18:15.470Z,-1.60
2018-01-15T04:20:42.929Z,-1.60
2018-01-15T04:23:10.388Z,-1.60
2018-01-15T04:25:37.836Z,-1.50
2018-01-15T04:28:05.294Z,-1.60
2018-01-15T04:30:32.753Z,-1.60
2018-01-15T04:33:00.213Z,-1.60
2018-01-15T04:35:27.659Z,-1.60
2018-01-15T04:37:55.120Z,-1.60
2018-01-15T04:40:22.570Z,-1.60
2018-01-15T04:42:50.022Z,-1.50
2018-01-15T04:45:17.480Z,-1.50
2018-01-15T04:47:44.924Z,-1.50
2018-01-15T04:50:12.382Z,-1.50
2018-01-15T04:52:39.835Z,-1.50
2018-01-15T04:55:07.296Z,-1.50
2018-01-15T04:57:34.751Z,-1.50
2018-01-15T05:00:02.212Z,-1.50
2018-01-15T05:02:29.663Z,-1.40
2018-01-15T05:04:58.069Z,-1.40
2018-01-15T05:07:25.520Z,-1.40
2018-01-15T05:09:52.972Z,-1.40
2018-01-15T05:12:20.431Z,-1.40
2018-01-15T05:14:47.880Z,-1.40
2018-01-15T05:17:15.331Z,-1.40
2018-01-15T05:19:42.794Z,-1.40
2018-01-15T05:22:10.244Z,-1.40
2018-01-15T05:24:37.696Z,-1.40
2018-01-15T05:27:05.147Z,-1.40
2018-01-15T05:29:33.360Z,-1.40
2018-01-15T05:32:00.807Z,-1.40
2018-01-15T05:34:28.268Z,-1.40
2018-01-15T05:36:55.707Z,-1.40
2018-01-15T05:39:23.162Z,-1.40
2018-01-15T05:41:50.615Z,-1.40
2018-01-15T05:44:18.068Z,-1.40
2018-01-15T05:46:45.524Z,-1.40
2018-01-15T05:49:12.979Z,-1.30
2018-01-15T05:51:40.427Z,-1.30
2018-01-15T05:54:08.651Z,-1.40
2018-01-15T05:56:36.099Z,-1.40
2018-01-15T05:59:03.547Z,-1.30
2018-01-15T06:01:31.002Z,-1.40
2018-01-15T06:03:58.462Z,-1.40
2018-01-15T06:06:25.918Z,-1.40
2018-01-15T06:08:53.368Z,-1.40
2018-01-15T06:11:20.832Z,-1.30
2018-01-15T06:13:48.280Z,-1.40
2018-01-15T06:16:15.726Z,-1.30
2018-01-15T06:18:43.179Z,-1.40
2018-01-15T06:21:10.645Z,-1.30
2018-01-15T06:23:38.098Z,-1.30
2018-01-15T06:26:05.549Z,-1.30
2018-01-15T06:28:33.700Z,-1.30
2018-01-15T06:31:01.921Z,-1.20
2018-01-15T06:33:29.383Z,-1.20
2018-01-15T06:35:56.835Z,-1.10
2018-01-15T06:38:24.293Z,-1.10
2018-01-15T06:40:51.749Z,-1.10
2018-01-15T06:43:19.210Z,-1.00
2018-01-15T06:45:46.655Z,-1.00
2018-01-15T06:48:14.113Z,-1.00
2018-01-15T06:50:41.563Z,-1.00
2018-01-15T06:53:09.034Z,-0.90
2018-01-15T06:55:36.484Z,-0.90
2018-01-15T06:58:03.928Z,-0.90
2018-01-15T07:00:31.388Z,-0.90
2018-01-15T07:02:58.844Z,-0.90
2018-01-15T07:05:26.303Z,-0.80
2018-01-15T07:07:53.755Z,-0.80
2018-01-15T07:10:21.232Z,-0.80
2018-01-15T07:12:48.852Z,-0.80
2018-01-15T07:15:17.083Z,-0.90
2018-01-15T07:17:44.539Z,-0.90
2018-01-15T07:20:11.991Z,-0.90
2018-01-15T07:22:39.453Z,-0.80
2018-01-15T07:25:06.916Z,-0.80
2018-01-15T07:27:34.368Z,-0.70
2018-01-15T07:30:01.827Z,-0.70
2018-01-15T07:32:29.280Z,-0.70
2018-01-15T07:34:56.734Z,-0.70
2018-01-15T07:37:24.180Z,-0.70
2018-01-15T07:39:51.634Z,-0.70
2018-01-15T07:42:19.087Z,-0.60
2018-01-15T07:44:46.538Z,-0.60
2018-01-15T07:47:13.991Z,-0.60
2018-01-15T07:49:41.442Z,-0.50
2018-01-15T07:52:08.904Z,-0.50
2018-01-15T07:54:36.352Z,-0.50
2018-01-15T07:57:03.806Z,-0.50
2018-01-15T07:59:31.259Z,-0.50
2018-01-15T08:01:58.724Z,-0.50
2018-01-15T08:04:26.175Z,-0.50
2018-01-15T08:06:53.628Z,-0.40
2018-01-15T08:09:21.097Z,-0.40
2018-01-15T08:11:48.548Z,-0.30
2018-01-15T08:14:16.016Z,-0.30
2018-01-15T08:16:43.463Z,-0.30
2018-01-15T08:19:10.923Z,-0.20
2018-01-15T08:21:38.376Z,-0.20
2018-01-15T08:24:05.844Z,-0.10
2018-01-15T08:26:33.328Z,-0.10
2018-01-15T08:29:00.788Z,-0.10
2018-01-15T08:31:28.235Z,0.00
2018-01-15T08:33:55.684Z,0.00
2018-01-15T08:36:23.907Z,0.00
2018-01-15T08:38:52.133Z,0.00
2018-01-15T08:41:19.591Z,-0.10
2018-01-15T08:43:47.047Z,0.00
2018-01-15T08:46:14.504Z,0.00
2018-01-15T08:48:41.965Z,0.00
2018-01-15T08:51:09.416Z,0.00
2018-01-15T08:53:36.875Z,0.00
2018-01-15T08:56:05.234Z,0.00
2018-01-15T08:58:33.674Z,0.00
2018-01-15T09:01:01.301Z,0.10
2018-01-15T09:03:28.986Z,0.10
2018-01-15T09:05:56.528Z,0.20
2018-01-15T09:08:24.029Z,0.20
2018-01-15T09:10:52.341Z,0.20
2018-01-15T09:13:19.878Z,0.20
2018-01-15T09:15:47.410Z,0.20
2018-01-15T09:18:14.913Z,0.20
2018-01-15T09:20:43.868Z,0.20
2018-01-15T09:23:12.155Z,0.20
2018-01-15T09:25:40.513Z,0.20
2018-01-15T09:28:08.149Z,0.20
2018-01-15T09:30:35.775Z,0.20
2018-01-15T09:33:04.936Z,0.30
2018-01-15T09:35:33.205Z,0.30
2018-01-15T09:38:00.723Z,0.30
2018-01-15T09:40:28.256Z,0.40
2018-01-15T09:42:55.759Z,0.40
2018-01-15T09:45:23.314Z,0.40
2018-01-15T09:47:50.839Z,0.50
2018-01-15T09:50:18.341Z,0.50
2018-01-15T09:52:45.886Z,0.50
2018-01-15T09:55:13.378Z,0.60
2018-01-15T09:57:41.591Z,0.70
2018-01-15T10:00:09.044Z,0.70
2018-01-15T10:02:39.835Z,0.80
2018-01-15T10:05:07.368Z,0.80
2018-01-15T10:07:35.006Z,0.90
2018-01-15T10:10:02.591Z,0.90
2018-01-15T10:12:30.113Z,1.00
2018-01-15T10:14:58.715Z,0.90
2018-01-15T10:17:26.257Z,0.90
2018-01-15T10:19:53.719Z,1.00
2018-01-15T10:22:21.291Z,1.00
2018-01-15T10:24:48.915Z,1.10
2018-01-15T10:27:16.585Z,1.10
2018-01-15T10:29:45.643Z,1.20
2018-01-15T10:32:13.096Z,1.30
2018-01-15T10:40:09.890Z,1.50
2018-01-15T10:42:37.495Z,1.60
2018-01-15T10:45:05.005Z,1.70
2018-01-15T10:47:32.539Z,1.80
2018-01-15T10:50:00.097Z,1.80
2018-01-15T10:52:50.284Z,1.80
2018-01-15T10:55:17.778Z,1.80
2018-01-15T10:57:46.066Z,1.90
2018-01-15T11:00:13.533Z,1.90
2018-01-15T11:02:40.988Z,1.90
2018-01-15T11:05:08.440Z,1.80
2018-01-15T11:07:43.715Z,1.80
2018-01-15T11:10:11.230Z,1.80
2018-01-15T11:12:39.527Z,1.90
2018-01-15T11:21:02.624Z,1.80
2018-01-15T11:23:30.087Z,1.90
2018-01-15T11:25:57.600Z,2.00
2018-01-15T11:31:21.402Z,1.90
2018-01-15T11:33:49.632Z,1.90
2018-01-15T11:36:20.035Z,1.90
2018-01-15T11:38:56.402Z,1.90
2018-01-15T11:42:02.171Z,2.00
2018-01-15T11:44:30.472Z,2.10
2018-01-15T11:50:55.248Z,2.00
2018-01-15T11:53:22.782Z,2.00
2018-01-15T11:55:50.269Z,2.00
2018-01-15T11:58:17.751Z,2.00
2018-01-15T12:00:45.250Z,2.00
2018-01-15T12:03:13.516Z,2.10
2018-01-15T12:05:41.771Z,2.10
2018-01-15T12:08:09.305Z,2.10
2018-01-15T12:10:36.791Z,2.10
2018-01-15T12:13:04.325Z,2.10
2018-01-15T12:15:31.818Z,2.10
2018-01-15T12:18:08.732Z,2.10
2018-01-15T12:20:36.228Z,2.20
2018-01-15T12:23:03.747Z,2.20
2018-01-15T12:25:37.808Z,2.20
2018-01-15T12:28:05.449Z,2.30
2018-01-15T12:44:22.413Z,2.40
2018-01-15T12:46:49.902Z,2.40
2018-01-15T12:49:19.096Z,2.50
2018-01-15T12:53:16.373Z,2.50
2018-01-15T12:55:43.959Z,2.50
2018-01-15T12:58:12.465Z,2.60
2018-01-15T13:00:40.736Z,2.60
2018-01-15T13:03:08.950Z,2.60
2018-01-15T13:05:51.383Z,2.60
2018-01-15T13:08:30.692Z,2.70
2018-01-15T13:10:58.169Z,2.70
2018-01-15T13:13:25.621Z,2.60
2018-01-15T13:15:53.102Z,2.60
2018-01-15T13:18:20.564Z,2.60
2018-01-15T13:20:48.814Z,2.70
2018-01-15T13:23:16.276Z,2.70
2018-01-15T13:25:43.737Z,2.70
2018-01-15T13:28:11.228Z,2.80
2018-01-15T13:30:38.676Z,2.80
2018-01-15T13:33:06.911Z,2.80
2018-01-15T13:35:34.483Z,2.80
2018-01-15T13:38:02.003Z,2.80
2018-01-15T13:40:29.475Z,2.80
2018-01-15T13:42:56.952Z,2.80
2018-01-15T13:45:24.407Z,2.80
2018-01-15T13:47:51.863Z,2.80
2018-01-15T13:50:19.336Z,2.80
2018-01-15T13:52:46.827Z,2.90
2018-01-15T13:55:15.156Z,2.90
2018-01-15T13:57:42.649Z,2.90
2018-01-15T14:00:10.921Z,2.90
2018-01-15T14:02:39.225Z,3.00
2018-01-15T14:05:06.693Z,2.90
2018-01-15T14:07:34.161Z,3.00
2018-01-15T14:10:01.629Z,3.00
2018-01-15T14:12:29.086Z,3.00
2018-01-15T14:14:56.622Z,3.10
2018-01-15T14:17:24.137Z,3.00
2018-01-15T14:19:53.959Z,3.10
2018-01-15T14:22:22.321Z,3.10
2018-01-15T14:25:20.443Z,3.10
2018-01-15T14:27:48.085Z,3.10
2018-01-15T14:30:15.600Z,3.00
2018-01-15T14:32:43.149Z,3.10
2018-01-15T14:35:10.610Z,3.10
2018-01-15T14:37:38.090Z,3.10
2018-01-15T14:40:05.628Z,3.00
2018-01-15T14:42:33.004Z,3.00
2018-01-15T14:45:00.472Z,3.00
2018-01-15T14:47:28.720Z,3.00
2018-01-15T14:49:56.343Z,2.90
2018-01-15T14:52:23.856Z,3.00
2018-01-15T14:54:52.081Z,2.90
2018-01-15T14:57:19.657Z,2.90
2018-01-15T14:59:47.166Z,2.90
2018-01-15T15:02:15.454Z,2.90
2018-01-15T15:04:42.988Z,2.90
2018-01-15T15:07:11.326Z,2.90
2018-01-15T15:09:38.785Z,2.90
2018-01-15T15:12:06.260Z,2.90
2018-01-15T15:14:33.707Z,2.90
2018-01-15T15:17:02.457Z,2.90
2018-01-15T15:19:30.744Z,3.00
2018-01-15T15:21:58.329Z,3.00
2018-01-15T15:24:25.829Z,3.00
2018-01-15T15:26:54.102Z,3.00
2018-01-15T15:29:22.324Z,3.00
2018-01-15T15:31:50.005Z,3.00
2018-01-15T15:34:17.470Z,3.00
2018-01-15T15:36:44.937Z,3.00
2018-01-15T15:39:13.382Z,3.00
2018-01-15T15:41:40.994Z,3.00
2018-01-15T15:44:09.272Z,3.00
2018-01-15T15:46:36.706Z,3.00
2018-01-15T15:49:04.924Z,3.00
2018-01-15T15:51:32.359Z,3.00
2018-01-15T15:53:59.815Z,3.00
2018-01-15T15:56:27.265Z,3.10
2018-01-15T15:58:55.483Z,3.00
2018-01-15T16:01:22.930Z,3.00
2018-01-15T16:03:50.385Z,3.00
2018-01-15T16:06:17.840Z,3.00
2018-01-15T16:08:45.294Z,3.00
2018-01-15T16:11:12.768Z,3.00
2018-01-15T16:13:40.221Z,2.90
2018-01-15T16:16:07.674Z,3.00
2018-01-15T16:18:35.202Z,2.90
2018-01-15T16:21:02.718Z,2.90
2018-01-15T16:23:30.139Z,2.90
2018-01-15T16:25:57.576Z,2.90
2018-01-15T16:28:25.020Z,3.00
2018-01-15T16:30:53.252Z,3.00
2018-01-15T16:33:20.702Z,3.00
2018-01-15T16:35:48.158Z,3.00
2018-01-15T16:38:15.624Z,3.00
2018-01-15T16:40:43.072Z,3.00
2018-01-15T16:43:10.532Z,3.00
2018-01-15T16:45:38.009Z,3.00
2018-01-15T16:48:06.968Z,3.00
2018-01-15T16:50:34.423Z,3.00
2018-01-15T16:53:01.875Z,3.10
2018-01-15T16:55:29.321Z,3.10
2018-01-15T16:57:56.785Z,3.10
2018-01-15T17:00:24.235Z,3.10
2018-01-15T17:02:51.694Z,3.20
2018-01-15T18:21:18.654Z,3.20
2018-01-15T18:23:46.137Z,4.10
2018-01-15T18:26:13.706Z,4.10
2018-01-15T18:28:41.933Z,4.00
2018-01-15T18:31:09.393Z,4.00
2018-01-15T18:33:36.852Z,3.80
2018-01-15T18:36:04.313Z,3.60
2018-01-15T18:38:32.014Z,3.60
2018-01-15T18:40:59.480Z,3.60
2018-01-15T18:43:27.689Z,3.60
2018-01-15T18:45:55.155Z,3.50
2018-01-15T18:48:22.602Z,3.50
2018-01-15T18:50:50.043Z,3.50
2018-01-15T18:53:17.495Z,3.50
2018-01-15T18:55:45.703Z,3.50
2018-01-15T18:58:13.150Z,3.50
2018-01-15T19:00:40.594Z,3.50
2018-01-15T19:03:08.044Z,3.50
2018-01-15T19:05:35.487Z,3.50
2018-01-15T19:08:03.711Z,3.50
2018-01-15T19:10:31.156Z,3.50
2018-01-15T19:12:58.599Z,3.50
2018-01-15T19:15:26.066Z,3.60
2018-01-15T19:17:53.513Z,3.50
2018-01-15T19:20:20.964Z,3.60
2018-01-15T19:22:48.417Z,3.60
2018-01-15T19:25:15.868Z,3.60
2018-01-15T19:27:43.307Z,3.60
2018-01-15T19:30:11.576Z,3.70
2018-01-15T19:32:38.976Z,3.80
2018-01-15T19:35:09.929Z,3.90
2018-01-15T19:37:37.955Z,4.00
2018-01-15T19:40:06.209Z,4.10
2018-01-15T19:42:33.690Z,4.10
2018-01-15T19:45:07.645Z,4.20
2018-01-15T19:47:40.875Z,4.10
2018-01-15T19:50:14.110Z,4.20
2018-01-15T19:55:54.035Z,4.10
2018-01-15T19:58:27.230Z,4.00
2018-01-15T20:01:00.292Z,4.00
2018-01-15T20:03:33.570Z,4.00
2018-01-15T20:06:06.762Z,4.00
2018-01-15T20:11:40.156Z,4.00
2018-01-15T20:14:07.604Z,4.00
2018-01-15T20:16:35.065Z,4.00
2018-01-15T20:19:02.517Z,4.00
2018-01-15T20:21:29.954Z,4.00
2018-01-15T20:23:58.224Z,3.90
2018-01-15T20:26:25.697Z,3.90
2018-01-15T20:28:53.903Z,3.70
2018-01-15T20:31:21.340Z,3.70
2018-01-15T20:33:48.836Z,3.70
2018-01-15T20:36:16.301Z,3.60
2018-01-15T20:38:43.782Z,3.60
2018-01-15T20:41:12.041Z,3.50
2018-01-15T20:43:39.528Z,3.50
2018-01-15T20:46:07.803Z,3.50
2018-01-15T20:48:35.271Z,3.50
2018-01-15T20:51:02.761Z,3.50
2018-01-15T20:53:30.232Z,3.50
2018-01-15T20:55:57.769Z,3.50
2018-01-15T20:58:25.259Z,3.50
2018-01-15T21:00:52.768Z,3.60
2018-01-15T21:03:20.273Z,3.50
2018-01-15T21:05:47.761Z,3.60
2018-01-15T21:08:16.063Z,3.60
2018-01-15T21:10:43.600Z,3.60
2018-01-15T21:13:12.013Z,3.50
2018-01-15T21:15:39.530Z,3.50
2018-01-15T21:18:07.005Z,3.50
2018-01-15T21:20:34.507Z,3.40
2018-01-15T21:23:01.975Z,3.30
2018-01-15T21:25:29.454Z,3.30
2018-01-15T21:27:57.702Z,3.30
2018-01-15T21:30:25.136Z,3.30
2018-01-15T21:32:52.625Z,3.30
2018-01-15T21:35:20.106Z,3.40
2018-01-15T21:37:48.367Z,3.40
2018-01-15T21:40:15.847Z,3.40
2018-01-15T21:42:44.075Z,3.50
2018-01-15T21:45:11.516Z,3.50
2018-01-15T21:47:39.001Z,3.40
2018-01-15T21:50:06.440Z,3.40
2018-01-15T21:52:33.895Z,3.40
2018-01-15T21:55:01.381Z,3.40
2018-01-15T21:57:28.868Z,3.40
2018-01-15T21:59:57.065Z,3.40
2018-01-15T22:02:24.508Z,3.40
2018-01-15T22:04:51.997Z,3.40
2018-01-15T22:07:19.431Z,3.40
2018-01-15T22:09:46.922Z,3.50
2018-01-15T22:12:14.402Z,3.50
2018-01-15T22:14:41.841Z,3.60
2018-01-15T22:17:09.342Z,3.60
2018-01-15T22:19:36.789Z,3.70
2018-01-15T22:22:05.000Z,3.80
2018-01-15T22:24:32.441Z,3.80
2018-01-15T22:26:59.934Z,3.80
2018-01-15T22:29:27.361Z,3.80
2018-01-15T22:31:57.796Z,3.80
2018-01-15T22:34:25.367Z,3.80
2018-01-15T22:36:53.706Z,3.90
2018-01-15T22:39:21.193Z,3.90
2018-01-15T22:41:48.748Z,3.90
2018-01-15T22:44:16.238Z,4.00
2018-01-15T22:46:43.738Z,4.10
2018-01-15T22:49:11.254Z,4.10
2018-01-15T22:51:38.738Z,4.10
2018-01-15T22:54:06.985Z,4.30
2018-01-15T22:56:34.570Z,4.30
2018-01-15T22:59:02.853Z,4.40
2018-01-15T23:01:31.340Z,4.30
2018-01-15T23:03:59.589Z,4.40
2018-01-15T23:06:27.246Z,4.40
2018-01-15T23:08:54.755Z,4.40
2018-01-15T23:11:22.295Z,4.40
2018-01-15T23:13:49.819Z,4.40
2018-01-15T23:16:17.326Z,4.40
2018-01-15T23:18:44.888Z,4.50
2018-01-15T23:21:12.534Z,4.40
2018-01-15T23:23:39.980Z,4.40
2018-01-15T23:26:08.185Z,4.50
2018-01-15T23:28:35.682Z,4.50
2018-01-15T23:31:03.137Z,4.40
2018-01-15T23:33:30.593Z,4.40
2018-01-15T23:35:58.037Z,4.50
2018-01-15T23:38:25.471Z,4.40
2018-01-15T23:40:52.922Z,4.50
2018-01-15T23:43:20.365Z,4.40
2018-01-15T23:45:47.811Z,4.50
2018-01-15T23:48:16.027Z,4.60
2018-01-15T23:50:43.474Z,4.60
2018-01-15T23:53:10.918Z,4.60
2018-01-15T23:55:38.358Z,4.70
2018-01-15T23:58:05.801Z,4.70
